sensor_id;sensor_type;location;lat;lon;timestamp;pressure;altitude;pressure_sealevel;temperature
24201;BMP280;2801;50.972;7.856;2023-07-31T00:00:15;97250.22;;;15.73
24201;BMP280;2801;50.972;7.856;2023-07-31T00:02:42;97251.84;;;15.77
24201;BMP280;2801;50.972;7.856;2023-07-31T00:05:09;97243.75;;;15.77
24201;BMP280;2801;50.972;7.856;2023-07-31T00:07:36;97240.69;;;15.79
24201;BMP280;2801;50.972;7.856;2023-07-31T00:10:03;97233.34;;;15.79
24201;BMP280;2801;50.972;7.856;2023-07-31T00:12:30;97239.09;;;15.78
24201;BMP280;2801;50.972;7.856;2023-07-31T00:14:57;97245.31;;;15.78
24201;BMP280;2801;50.972;7.856;2023-07-31T00:17:24;97225.97;;;15.76
24201;BMP280;2801;50.972;7.856;2023-07-31T00:19:51;97241.09;;;15.81
24201;BMP280;2801;50.972;7.856;2023-07-31T00:22:18;97229.94;;;15.82
24201;BMP280;2801;50.972;7.856;2023-07-31T00:24:45;97223.00;;;15.85
24201;BMP280;2801;50.972;7.856;2023-07-31T00:27:12;97223.09;;;15.88
24201;BMP280;2801;50.972;7.856;2023-07-31T00:29:39;97214.63;;;15.90
24201;BMP280;2801;50.972;7.856;2023-07-31T00:32:07;97213.41;;;15.87
24201;BMP280;2801;50.972;7.856;2023-07-31T00:34:34;97216.97;;;15.91
24201;BMP280;2801;50.972;7.856;2023-07-31T00:37:01;97213.88;;;15.93
24201;BMP280;2801;50.972;7.856;2023-07-31T00:39:30;97211.94;;;15.93
24201;BMP280;2801;50.972;7.856;2023-07-31T00:41:57;97211.56;;;15.91
24201;BMP280;2801;50.972;7.856;2023-07-31T00:44:24;97213.09;;;15.92
24201;BMP280;2801;50.972;7.856;2023-07-31T00:46:51;97219.69;;;15.95
24201;BMP280;2801;50.972;7.856;2023-07-31T00:49:18;97217.31;;;15.90
24201;BMP280;2801;50.972;7.856;2023-07-31T00:51:45;97217.00;;;15.95
24201;BMP280;2801;50.972;7.856;2023-07-31T00:54:12;97212.03;;;15.97
24201;BMP280;2801;50.972;7.856;2023-07-31T00:56:41;97220.91;;;15.97
24201;BMP280;2801;50.972;7.856;2023-07-31T00:59:11;97222.41;;;15.95
24201;BMP280;2801;50.972;7.856;2023-07-31T01:01:38;97216.56;;;15.93
24201;BMP280;2801;50.972;7.856;2023-07-31T01:04:05;97216.28;;;15.98
24201;BMP280;2801;50.972;7.856;2023-07-31T01:07:22;97220.13;;;15.97
24201;BMP280;2801;50.972;7.856;2023-07-31T01:12:45;97205.34;;;15.91
24201;BMP280;2801;50.972;7.856;2023-07-31T01:15:13;97205.41;;;15.94
24201;BMP280;2801;50.972;7.856;2023-07-31T01:17:42;97204.28;;;15.95
24201;BMP280;2801;50.972;7.856;2023-07-31T01:20:23;97202.69;;;15.94
24201;BMP280;2801;50.972;7.856;2023-07-31T01:28:54;97187.69;;;15.97
24201;BMP280;2801;50.972;7.856;2023-07-31T01:31:24;97194.06;;;15.85
24201;BMP280;2801;50.972;7.856;2023-07-31T01:33:54;97193.00;;;15.90
24201;BMP280;2801;50.972;7.856;2023-07-31T01:36:23;97187.50;;;15.86
24201;BMP280;2801;50.972;7.856;2023-07-31T01:38:50;97194.91;;;15.89
24201;BMP280;2801;50.972;7.856;2023-07-31T01:41:18;97188.41;;;15.94
24201;BMP280;2801;50.972;7.856;2023-07-31T01:43:46;97193.94;;;16.01
24201;BMP280;2801;50.972;7.856;2023-07-31T01:46:13;97184.25;;;16.00
24201;BMP280;2801;50.972;7.856;2023-07-31T01:48:40;97185.03;;;16.00
24201;BMP280;2801;50.972;7.856;2023-07-31T01:51:07;97190.44;;;16.00
24201;BMP280;2801;50.972;7.856;2023-07-31T01:53:34;97195.06;;;16.00
24201;BMP280;2801;50.972;7.856;2023-07-31T01:56:01;97182.09;;;16.12
24201;BMP280;2801;50.972;7.856;2023-07-31T01:58:28;97176.66;;;16.09
24201;BMP280;2801;50.972;7.856;2023-07-31T02:00:55;97188.22;;;16.09
24201;BMP280;2801;50.972;7.856;2023-07-31T02:03:22;97177.50;;;16.13
24201;BMP280;2801;50.972;7.856;2023-07-31T02:05:49;97180.94;;;16.13
24201;BMP280;2801;50.972;7.856;2023-07-31T02:08:17;97172.44;;;16.11
24201;BMP280;2801;50.972;7.856;2023-07-31T02:10:43;97187.50;;;16.12
24201;BMP280;2801;50.972;7.856;2023-07-31T02:13:10;97180.22;;;16.16
24201;BMP280;2801;50.972;7.856;2023-07-31T02:15:38;97179.41;;;16.12
24201;BMP280;2801;50.972;7.856;2023-07-31T02:18:04;97166.59;;;16.09
24201;BMP280;2801;50.972;7.856;2023-07-31T02:20:35;97171.66;;;16.11
24201;BMP280;2801;50.972;7.856;2023-07-31T02:23:02;97178.06;;;15.99
24201;BMP280;2801;50.972;7.856;2023-07-31T02:25:29;97174.31;;;16.07
24201;BMP280;2801;50.972;7.856;2023-07-31T02:27:56;97174.25;;;16.04
24201;BMP280;2801;50.972;7.856;2023-07-31T02:30:23;97173.97;;;16.09
24201;BMP280;2801;50.972;7.856;2023-07-31T02:32:50;97171.97;;;16.06
24201;BMP280;2801;50.972;7.856;2023-07-31T02:35:17;97170.00;;;16.03
24201;BMP280;2801;50.972;7.856;2023-07-31T02:37:45;97164.91;;;15.98
24201;BMP280;2801;50.972;7.856;2023-07-31T02:40:12;97162.22;;;15.98
24201;BMP280;2801;50.972;7.856;2023-07-31T02:42:39;97169.50;;;15.94
24201;BMP280;2801;50.972;7.856;2023-07-31T02:45:07;97163.97;;;15.87
24201;BMP280;2801;50.972;7.856;2023-07-31T02:47:34;97171.34;;;15.90
24201;BMP280;2801;50.972;7.856;2023-07-31T02:50:05;97167.81;;;15.86
24201;BMP280;2801;50.972;7.856;2023-07-31T02:52:32;97166.34;;;15.92
24201;BMP280;2801;50.972;7.856;2023-07-31T02:55:00;97155.53;;;15.92
24201;BMP280;2801;50.972;7.856;2023-07-31T02:57:27;97166.00;;;15.93
24201;BMP280;2801;50.972;7.856;2023-07-31T02:59:53;97167.88;;;15.89
24201;BMP280;2801;50.972;7.856;2023-07-31T03:02:20;97157.88;;;15.93
24201;BMP280;2801;50.972;7.856;2023-07-31T03:04:47;97150.38;;;16.09
24201;BMP280;2801;50.972;7.856;2023-07-31T03:07:15;97150.19;;;15.95
24201;BMP280;2801;50.972;7.856;2023-07-31T03:09:42;97151.31;;;15.94
24201;BMP280;2801;50.972;7.856;2023-07-31T03:12:09;97156.06;;;16.01
24201;BMP280;2801;50.972;7.856;2023-07-31T03:14:35;97145.25;;;16.01
24201;BMP280;2801;50.972;7.856;2023-07-31T03:17:03;97148.00;;;16.04
24201;BMP280;2801;50.972;7.856;2023-07-31T03:19:32;97146.09;;;16.05
24201;BMP280;2801;50.972;7.856;2023-07-31T03:22:00;97143.69;;;16.00
24201;BMP280;2801;50.972;7.856;2023-07-31T03:24:28;97144.03;;;15.98
24201;BMP280;2801;50.972;7.856;2023-07-31T03:26:55;97142.97;;;16.03
24201;BMP280;2801;50.972;7.856;2023-07-31T03:29:22;97151.13;;;16.06
24201;BMP280;2801;50.972;7.856;2023-07-31T03:31:50;97142.22;;;16.06
24201;BMP280;2801;50.972;7.856;2023-07-31T03:34:17;97142.63;;;16.08
24201;BMP280;2801;50.972;7.856;2023-07-31T03:36:44;97139.16;;;16.07
24201;BMP280;2801;50.972;7.856;2023-07-31T03:39:11;97136.13;;;16.12
24201;BMP280;2801;50.972;7.856;2023-07-31T03:41:38;97135.09;;;16.20
24201;BMP280;2801;50.972;7.856;2023-07-31T03:44:05;97133.56;;;16.23
24201;BMP280;2801;50.972;7.856;2023-07-31T03:46:32;97128.47;;;16.18
24201;BMP280;2801;50.972;7.856;2023-07-31T03:49:00;97126.97;;;16.20
24201;BMP280;2801;50.972;7.856;2023-07-31T03:51:27;97127.69;;;16.17
24201;BMP280;2801;50.972;7.856;2023-07-31T03:53:54;97122.72;;;16.19
24201;BMP280;2801;50.972;7.856;2023-07-31T03:56:21;97123.06;;;16.18
24201;BMP280;2801;50.972;7.856;2023-07-31T03:58:49;97116.50;;;16.19
24201;BMP280;2801;50.972;7.856;2023-07-31T04:01:16;97121.56;;;16.20
24201;BMP280;2801;50.972;7.856;2023-07-31T04:03:43;97118.50;;;16.22
24201;BMP280;2801;50.972;7.856;2023-07-31T04:06:10;97117.78;;;16.28
24201;BMP280;2801;50.972;7.856;2023-07-31T04:08:37;97108.09;;;16.24
24201;BMP280;2801;50.972;7.856;2023-07-31T04:11:04;97106.53;;;16.23
24201;BMP280;2801;50.972;7.856;2023-07-31T04:13:31;97118.19;;;16.27
24201;BMP280;2801;50.972;7.856;2023-07-31T04:15:58;97116.66;;;16.29
24201;BMP280;2801;50.972;7.856;2023-07-31T04:18:26;97116.50;;;16.19
24201;BMP280;2801;50.972;7.856;2023-07-31T04:20:53;97104.56;;;16.20
24201;BMP280;2801;50.972;7.856;2023-07-31T04:23:20;97115.03;;;16.21
24201;BMP280;2801;50.972;7.856;2023-07-31T04:25:47;97114.63;;;16.23
24201;BMP280;2801;50.972;7.856;2023-07-31T04:28:14;97112.31;;;16.21
24201;BMP280;2801;50.972;7.856;2023-07-31T04:30:41;97114.56;;;16.16
24201;BMP280;2801;50.972;7.856;2023-07-31T04:33:08;97118.91;;;16.24
24201;BMP280;2801;50.972;7.856;2023-07-31T04:35:35;97107.94;;;16.13
24201;BMP280;2801;50.972;7.856;2023-07-31T04:38:02;97118.09;;;16.20
24201;BMP280;2801;50.972;7.856;2023-07-31T04:40:29;97115.31;;;16.16
24201;BMP280;2801;50.972;7.856;2023-07-31T04:42:56;97112.16;;;16.11
24201;BMP280;2801;50.972;7.856;2023-07-31T04:45:23;97114.50;;;16.12
24201;BMP280;2801;50.972;7.856;2023-07-31T04:47:50;97121.47;;;16.13
24201;BMP280;2801;50.972;7.856;2023-07-31T04:50:17;97114.94;;;16.14
24201;BMP280;2801;50.972;7.856;2023-07-31T04:52:44;97114.16;;;16.17
24201;BMP280;2801;50.972;7.856;2023-07-31T04:55:11;97119.97;;;16.16
24201;BMP280;2801;50.972;7.856;2023-07-31T04:57:38;97112.97;;;16.15
24201;BMP280;2801;50.972;7.856;2023-07-31T05:00:06;97111.84;;;16.16
24201;BMP280;2801;50.972;7.856;2023-07-31T05:02:33;97117.63;;;16.14
24201;BMP280;2801;50.972;7.856;2023-07-31T05:05:00;97121.16;;;16.18
24201;BMP280;2801;50.972;7.856;2023-07-31T05:07:27;97114.50;;;16.12
24201;BMP280;2801;50.972;7.856;2023-07-31T05:09:53;97110.25;;;16.11
24201;BMP280;2801;50.972;7.856;2023-07-31T05:12:24;97116.88;;;16.17
24201;BMP280;2801;50.972;7.856;2023-07-31T05:14:51;97113.78;;;16.15
24201;BMP280;2801;50.972;7.856;2023-07-31T05:17:18;97108.41;;;16.19
24201;BMP280;2801;50.972;7.856;2023-07-31T05:19:45;97103.41;;;16.21
24201;BMP280;2801;50.972;7.856;2023-07-31T05:22:12;97108.09;;;16.24
24201;BMP280;2801;50.972;7.856;2023-07-31T05:24:38;97106.97;;;16.28
24201;BMP280;2801;50.972;7.856;2023-07-31T05:27:06;97109.69;;;16.28
24201;BMP280;2801;50.972;7.856;2023-07-31T05:29:33;97094.66;;;16.31
24201;BMP280;2801;50.972;7.856;2023-07-31T05:32:00;97099.69;;;16.32
24201;BMP280;2801;50.972;7.856;2023-07-31T05:34:27;97102.84;;;16.38
24201;BMP280;2801;50.972;7.856;2023-07-31T05:36:54;97093.97;;;16.37
24201;BMP280;2801;50.972;7.856;2023-07-31T05:39:21;97089.72;;;16.36
24201;BMP280;2801;50.972;7.856;2023-07-31T05:41:48;97082.31;;;16.33
24201;BMP280;2801;50.972;7.856;2023-07-31T05:44:15;97081.13;;;16.31
24201;BMP280;2801;50.972;7.856;2023-07-31T05:46:41;97075.72;;;16.31
24201;BMP280;2801;50.972;7.856;2023-07-31T05:49:09;97074.22;;;16.33
24201;BMP280;2801;50.972;7.856;2023-07-31T05:51:36;97084.31;;;16.40
24201;BMP280;2801;50.972;7.856;2023-07-31T05:54:03;97075.41;;;16.39
24201;BMP280;2801;50.972;7.856;2023-07-31T05:56:30;97071.66;;;16.44
24201;BMP280;2801;50.972;7.856;2023-07-31T05:58:58;97067.41;;;16.46
24201;BMP280;2801;50.972;7.856;2023-07-31T06:01:25;97063.97;;;16.49
24201;BMP280;2801;50.972;7.856;2023-07-31T06:03:52;97059.00;;;16.55
24201;BMP280;2801;50.972;7.856;2023-07-31T06:06:19;97062.53;;;16.59
24201;BMP280;2801;50.972;7.856;2023-07-31T06:08:46;97058.28;;;16.58
24201;BMP280;2801;50.972;7.856;2023-07-31T06:11:13;97041.31;;;16.61
24201;BMP280;2801;50.972;7.856;2023-07-31T06:13:40;97044.47;;;16.66
24201;BMP280;2801;50.972;7.856;2023-07-31T06:16:09;97048.72;;;16.67
24201;BMP280;2801;50.972;7.856;2023-07-31T06:18:36;97044.06;;;16.68
24201;BMP280;2801;50.972;7.856;2023-07-31T06:21:03;97045.28;;;16.70
24201;BMP280;2801;50.972;7.856;2023-07-31T06:23:30;97036.78;;;16.75
24201;BMP280;2801;50.972;7.856;2023-07-31T06:25:58;97036.81;;;16.79
24201;BMP280;2801;50.972;7.856;2023-07-31T06:28:29;97039.56;;;16.82
24201;BMP280;2801;50.972;7.856;2023-07-31T06:30:57;97036.06;;;16.78
24201;BMP280;2801;50.972;7.856;2023-07-31T06:33:25;97041.53;;;16.85
24201;BMP280;2801;50.972;7.856;2023-07-31T06:35:52;97040.75;;;16.85
24201;BMP280;2801;50.972;7.856;2023-07-31T06:38:24;97045.44;;;16.88
24201;BMP280;2801;50.972;7.856;2023-07-31T06:40:51;97049.69;;;16.89
24201;BMP280;2801;50.972;7.856;2023-07-31T06:43:18;97049.66;;;16.85
24201;BMP280;2801;50.972;7.856;2023-07-31T06:45:45;97050.44;;;16.86
24201;BMP280;2801;50.972;7.856;2023-07-31T06:48:13;97043.09;;;16.90
24201;BMP280;2801;50.972;7.856;2023-07-31T06:50:40;97043.09;;;16.86
24201;BMP280;2801;50.972;7.856;2023-07-31T06:53:07;97030.31;;;16.87
24201;BMP280;2801;50.972;7.856;2023-07-31T06:55:34;97035.72;;;16.83
24201;BMP280;2801;50.972;7.856;2023-07-31T06:58:01;97044.63;;;16.84
24201;BMP280;2801;50.972;7.856;2023-07-31T07:00:28;97043.84;;;16.83
24201;BMP280;2801;50.972;7.856;2023-07-31T07:02:55;97032.91;;;16.73
24201;BMP280;2801;50.972;7.856;2023-07-31T07:05:22;97037.97;;;16.78
24201;BMP280;2801;50.972;7.856;2023-07-31T07:07:50;97035.63;;;16.76
24201;BMP280;2801;50.972;7.856;2023-07-31T07:10:20;97042.56;;;16.70
24201;BMP280;2801;50.972;7.856;2023-07-31T07:12:48;97037.59;;;16.76
24201;BMP280;2801;50.972;7.856;2023-07-31T07:15:15;97036.00;;;16.75
24201;BMP280;2801;50.972;7.856;2023-07-31T07:17:42;97031.00;;;16.77
24201;BMP280;2801;50.972;7.856;2023-07-31T07:20:09;97025.63;;;16.80
24201;BMP280;2801;50.972;7.856;2023-07-31T07:22:36;97037.59;;;16.76
24201;BMP280;2801;50.972;7.856;2023-07-31T07:25:04;97032.22;;;16.83
24201;BMP280;2801;50.972;7.856;2023-07-31T07:27:31;97024.53;;;16.88
24201;BMP280;2801;50.972;7.856;2023-07-31T07:29:58;97023.78;;;16.91
24201;BMP280;2801;50.972;7.856;2023-07-31T07:32:25;97014.56;;;16.99
24201;BMP280;2801;50.972;7.856;2023-07-31T07:34:52;97019.31;;;17.09
24201;BMP280;2801;50.972;7.856;2023-07-31T07:37:19;97019.00;;;17.18
24201;BMP280;2801;50.972;7.856;2023-07-31T07:39:46;97011.25;;;17.20
24201;BMP280;2801;50.972;7.856;2023-07-31T07:42:13;97003.97;;;17.31
24201;BMP280;2801;50.972;7.856;2023-07-31T07:44:40;97009.81;;;17.33
24201;BMP280;2801;50.972;7.856;2023-07-31T07:47:07;97018.41;;;17.42
24201;BMP280;2801;50.972;7.856;2023-07-31T07:49:35;97015.00;;;17.52
24201;BMP280;2801;50.972;7.856;2023-07-31T07:52:03;97010.41;;;17.66
24201;BMP280;2801;50.972;7.856;2023-07-31T07:54:30;97016.25;;;17.68
24201;BMP280;2801;50.972;7.856;2023-07-31T07:56:58;97013.16;;;17.73
24201;BMP280;2801;50.972;7.856;2023-07-31T07:59:25;97020.56;;;17.76
24201;BMP280;2801;50.972;7.856;2023-07-31T08:01:56;97027.19;;;17.89
24201;BMP280;2801;50.972;7.856;2023-07-31T08:04:24;97018.72;;;17.94
24201;BMP280;2801;50.972;7.856;2023-07-31T08:06:51;97027.69;;;18.12
24201;BMP280;2801;50.972;7.856;2023-07-31T08:09:18;97013.69;;;18.03
24201;BMP280;2801;50.972;7.856;2023-07-31T08:11:45;97012.53;;;18.04
24201;BMP280;2801;50.972;7.856;2023-07-31T08:14:12;97012.88;;;17.96
24201;BMP280;2801;50.972;7.856;2023-07-31T08:16:39;97008.63;;;17.91
24201;BMP280;2801;50.972;7.856;2023-07-31T08:19:07;97003.91;;;17.85
24201;BMP280;2801;50.972;7.856;2023-07-31T08:21:34;97012.03;;;17.81
24201;BMP280;2801;50.972;7.856;2023-07-31T08:24:01;97000.41;;;17.74
24201;BMP280;2801;50.972;7.856;2023-07-31T08:26:28;97002.66;;;17.65
24201;BMP280;2801;50.972;7.856;2023-07-31T08:28:55;97004.25;;;17.69
24201;BMP280;2801;50.972;7.856;2023-07-31T08:31:22;97011.63;;;17.72
24201;BMP280;2801;50.972;7.856;2023-07-31T08:33:49;96994.53;;;17.61
24201;BMP280;2801;50.972;7.856;2023-07-31T08:36:16;96994.13;;;17.59
24201;BMP280;2801;50.972;7.856;2023-07-31T08:38:43;97002.25;;;17.59
24201;BMP280;2801;50.972;7.856;2023-07-31T08:41:09;96999.56;;;17.66
24201;BMP280;2801;50.972;7.856;2023-07-31T08:43:38;96994.16;;;17.70
24201;BMP280;2801;50.972;7.856;2023-07-31T08:46:05;97004.63;;;17.68
24201;BMP280;2801;50.972;7.856;2023-07-31T08:48:33;97002.28;;;17.63
24201;BMP280;2801;50.972;7.856;2023-07-31T08:51:02;97006.91;;;17.59
24201;BMP280;2801;50.972;7.856;2023-07-31T08:53:29;97001.44;;;17.55
24201;BMP280;2801;50.972;7.856;2023-07-31T08:55:58;96999.09;;;17.50
24201;BMP280;2801;50.972;7.856;2023-07-31T08:58:31;96999.44;;;17.42
24201;BMP280;2801;50.972;7.856;2023-07-31T09:01:03;97009.47;;;17.41
24201;BMP280;2801;50.972;7.856;2023-07-31T09:03:34;96994.44;;;17.44
24201;BMP280;2801;50.972;7.856;2023-07-31T09:06:03;96998.22;;;17.39
24201;BMP280;2801;50.972;7.856;2023-07-31T09:08:33;96999.03;;;17.40
24201;BMP280;2801;50.972;7.856;2023-07-31T09:11:02;96994.72;;;17.39
24201;BMP280;2801;50.972;7.856;2023-07-31T09:13:31;96981.97;;;17.39
24201;BMP280;2801;50.972;7.856;2023-07-31T09:15:58;96997.88;;;17.41
24201;BMP280;2801;50.972;7.856;2023-07-31T09:18:26;97002.56;;;17.44
24201;BMP280;2801;50.972;7.856;2023-07-31T09:21:06;96994.81;;;17.42
24201;BMP280;2801;50.972;7.856;2023-07-31T09:23:45;96997.13;;;17.44
24201;BMP280;2801;50.972;7.856;2023-07-31T09:26:34;97004.03;;;17.38
24201;BMP280;2801;50.972;7.856;2023-07-31T09:29:05;96999.78;;;17.37
24201;BMP280;2801;50.972;7.856;2023-07-31T09:31:43;97004.41;;;17.36
24201;BMP280;2801;50.972;7.856;2023-07-31T09:34:12;96994.72;;;17.39
24201;BMP280;2801;50.972;7.856;2023-07-31T09:36:48;96997.50;;;17.42
24201;BMP280;2801;50.972;7.856;2023-07-31T09:39:17;96994.44;;;17.47
24201;BMP280;2801;50.972;7.856;2023-07-31T09:41:48;96995.59;;;17.50
24201;BMP280;2801;50.972;7.856;2023-07-31T09:44:19;96984.75;;;17.50
24201;BMP280;2801;50.972;7.856;2023-07-31T09:46:46;96992.19;;;17.60
24201;BMP280;2801;50.972;7.856;2023-07-31T09:49:14;96985.19;;;17.55
24201;BMP280;2801;50.972;7.856;2023-07-31T09:51:42;96985.22;;;17.59
24201;BMP280;2801;50.972;7.856;2023-07-31T09:54:11;96985.19;;;17.55
24201;BMP280;2801;50.972;7.856;2023-07-31T09:56:50;96982.06;;;17.50
24201;BMP280;2801;50.972;7.856;2023-07-31T09:59:19;96982.81;;;17.47
24201;BMP280;2801;50.972;7.856;2023-07-31T10:01:51;96978.94;;;17.44
24201;BMP280;2801;50.972;7.856;2023-07-31T10:04:23;96977.38;;;17.43
24201;BMP280;2801;50.972;7.856;2023-07-31T10:06:54;96972.75;;;17.44
24201;BMP280;2801;50.972;7.856;2023-07-31T10:09:25;96977.38;;;17.43
24201;BMP280;2801;50.972;7.856;2023-07-31T10:12:00;96972.38;;;17.52
24201;BMP280;2801;50.972;7.856;2023-07-31T10:14:29;96957.69;;;17.53
24201;BMP280;2801;50.972;7.856;2023-07-31T10:16:58;96967.44;;;17.61
24201;BMP280;2801;50.972;7.856;2023-07-31T10:19:27;96955.00;;;17.60
24201;BMP280;2801;50.972;7.856;2023-07-31T10:21:59;96968.22;;;17.65
24201;BMP280;2801;50.972;7.856;2023-07-31T10:24:27;96965.88;;;17.67
24201;BMP280;2801;50.972;7.856;2023-07-31T10:26:59;96958.13;;;17.62
24201;BMP280;2801;50.972;7.856;2023-07-31T10:29:27;96968.97;;;17.62
24201;BMP280;2801;50.972;7.856;2023-07-31T10:31:58;96962.75;;;17.55
24201;BMP280;2801;50.972;7.856;2023-07-31T10:34:26;96959.25;;;17.54
24201;BMP280;2801;50.972;7.856;2023-07-31T10:37:25;96958.84;;;17.52
24201;BMP280;2801;50.972;7.856;2023-07-31T10:39:59;96961.59;;;17.59
24201;BMP280;2801;50.972;7.856;2023-07-31T10:45:34;96958.03;;;17.48
24201;BMP280;2801;50.972;7.856;2023-07-31T10:48:13;96955.63;;;17.36
24201;BMP280;2801;50.972;7.856;2023-07-31T10:50:50;96960.69;;;17.38
24201;BMP280;2801;50.972;7.856;2023-07-31T10:53:31;96956.38;;;17.33
24201;BMP280;2801;50.972;7.856;2023-07-31T10:56:07;96952.59;;;17.41
24201;BMP280;2801;50.972;7.856;2023-07-31T10:58:36;96947.53;;;17.40
24201;BMP280;2801;50.972;7.856;2023-07-31T11:01:05;96940.22;;;17.44
24201;BMP280;2801;50.972;7.856;2023-07-31T11:03:46;96936.00;;;17.46
24201;BMP280;2801;50.972;7.856;2023-07-31T11:06:18;96941.81;;;17.55
24201;BMP280;2801;50.972;7.856;2023-07-31T11:08:48;96932.19;;;17.61
24201;BMP280;2801;50.972;7.856;2023-07-31T11:11:18;96938.44;;;17.72
24201;BMP280;2801;50.972;7.856;2023-07-31T11:13:52;96934.22;;;17.82
24201;BMP280;2801;50.972;7.856;2023-07-31T11:16:22;96932.28;;;17.89
24201;BMP280;2801;50.972;7.856;2023-07-31T11:18:51;96931.94;;;17.98
24201;BMP280;2801;50.972;7.856;2023-07-31T11:21:22;96930.78;;;18.02
24201;BMP280;2801;50.972;7.856;2023-07-31T11:23:52;96929.63;;;18.07
24201;BMP280;2801;50.972;7.856;2023-07-31T11:26:20;96921.13;;;18.12
24201;BMP280;2801;50.972;7.856;2023-07-31T11:28:48;96930.44;;;18.22
24201;BMP280;2801;50.972;7.856;2023-07-31T11:31:17;96930.06;;;18.27
24201;BMP280;2801;50.972;7.856;2023-07-31T11:33:45;96934.69;;;18.26
24201;BMP280;2801;50.972;7.856;2023-07-31T11:36:20;96925.41;;;18.27
24201;BMP280;2801;50.972;7.856;2023-07-31T11:38:47;96930.47;;;18.32
24201;BMP280;2801;50.972;7.856;2023-07-31T11:41:16;96925.47;;;18.38
24201;BMP280;2801;50.972;7.856;2023-07-31T11:43:46;96934.78;;;18.47
24201;BMP280;2801;50.972;7.856;2023-07-31T11:46:14;96927.41;;;18.51
24201;BMP280;2801;50.972;7.856;2023-07-31T11:48:42;96932.44;;;18.56
24201;BMP280;2801;50.972;7.856;2023-07-31T11:51:12;96925.47;;;18.52
24201;BMP280;2801;50.972;7.856;2023-07-31T11:53:51;96934.78;;;18.58
24201;BMP280;2801;50.972;7.856;2023-07-31T11:56:20;96939.03;;;18.48
24201;BMP280;2801;50.972;7.856;2023-07-31T11:58:59;96923.53;;;18.52
24201;BMP280;2801;50.972;7.856;2023-07-31T12:01:30;96921.97;;;18.58
24201;BMP280;2801;50.972;7.856;2023-07-31T12:03:58;96919.25;;;18.55
24201;BMP280;2801;50.972;7.856;2023-07-31T12:06:36;96908.41;;;18.55
24201;BMP280;2801;50.972;7.856;2023-07-31T12:09:05;96908.41;;;18.62
24201;BMP280;2801;50.972;7.856;2023-07-31T12:11:46;96900.28;;;18.65
24201;BMP280;2801;50.972;7.856;2023-07-31T12:14:24;96903.38;;;18.78
24201;BMP280;2801;50.972;7.856;2023-07-31T12:17:01;96903.34;;;18.99
24201;BMP280;2801;50.972;7.856;2023-07-31T12:19:31;96894.06;;;18.93
24201;BMP280;2801;50.972;7.856;2023-07-31T12:22:00;96890.53;;;18.99
24201;BMP280;2801;50.972;7.856;2023-07-31T12:24:28;96890.53;;;18.99
24201;BMP280;2801;50.972;7.856;2023-07-31T12:26:55;96883.91;;;19.11
24201;BMP280;2801;50.972;7.856;2023-07-31T12:29:22;96886.66;;;19.07
24201;BMP280;2801;50.972;7.856;2023-07-31T12:31:49;96890.91;;;19.08
24201;BMP280;2801;50.972;7.856;2023-07-31T12:34:20;96885.50;;;18.98
24201;BMP280;2801;50.972;7.856;2023-07-31T12:36:48;96902.59;;;18.91
24201;BMP280;2801;50.972;7.856;2023-07-31T12:39:17;96889.78;;;18.81
24201;BMP280;2801;50.972;7.856;2023-07-31T12:41:44;96891.31;;;18.75
24201;BMP280;2801;50.972;7.856;2023-07-31T12:44:11;96885.13;;;18.71
24201;BMP280;2801;50.972;7.856;2023-07-31T12:46:38;96893.28;;;18.68
24201;BMP280;2801;50.972;7.856;2023-07-31T12:49:06;96898.69;;;18.64
24201;BMP280;2801;50.972;7.856;2023-07-31T12:51:33;96894.44;;;18.70
24201;BMP280;2801;50.972;7.856;2023-07-31T12:54:00;96898.34;;;18.76
24201;BMP280;2801;50.972;7.856;2023-07-31T12:56:26;96893.28;;;18.82
24201;BMP280;2801;50.972;7.856;2023-07-31T12:58:53;96880.88;;;18.84
24201;BMP280;2801;50.972;7.856;2023-07-31T13:01:20;96877.34;;;18.98
24201;BMP280;2801;50.972;7.856;2023-07-31T13:03:47;96873.44;;;19.09
24201;BMP280;2801;50.972;7.856;2023-07-31T13:06:15;96870.31;;;19.21
24201;BMP280;2801;50.972;7.856;2023-07-31T13:08:42;96869.88;;;19.44
24201;BMP280;2801;50.972;7.856;2023-07-31T13:11:10;96866.34;;;19.50
24201;BMP280;2801;50.972;7.856;2023-07-31T13:13:37;96876.44;;;19.53
24201;BMP280;2801;50.972;7.856;2023-07-31T13:16:04;96872.53;;;19.54
24201;BMP280;2801;50.972;7.856;2023-07-31T13:18:31;96869.47;;;19.52
24201;BMP280;2801;50.972;7.856;2023-07-31T13:20:58;96867.16;;;19.47
24201;BMP280;2801;50.972;7.856;2023-07-31T13:23:25;96860.94;;;19.43
24201;BMP280;2801;50.972;7.856;2023-07-31T13:25:52;96854.38;;;19.34
24201;BMP280;2801;50.972;7.856;2023-07-31T13:28:19;96847.78;;;19.24
24201;BMP280;2801;50.972;7.856;2023-07-31T13:30:46;96845.09;;;19.14
24201;BMP280;2801;50.972;7.856;2023-07-31T13:33:13;96845.13;;;19.10
24201;BMP280;2801;50.972;7.856;2023-07-31T13:36:00;96841.63;;;19.10
24201;BMP280;2801;50.972;7.856;2023-07-31T13:38:27;96836.19;;;19.06
24201;BMP280;2801;50.972;7.856;2023-07-31T13:40:54;96846.31;;;19.02
24201;BMP280;2801;50.972;7.856;2023-07-31T13:43:21;96853.28;;;19.00
24201;BMP280;2801;50.972;7.856;2023-07-31T13:45:47;96844.00;;;18.94
24201;BMP280;2801;50.972;7.856;2023-07-31T13:48:14;96838.16;;;18.95
24201;BMP280;2801;50.972;7.856;2023-07-31T13:50:41;96840.50;;;18.97
24201;BMP280;2801;50.972;7.856;2023-07-31T13:53:08;96827.31;;;18.95
24201;BMP280;2801;50.972;7.856;2023-07-31T13:55:35;96834.28;;;18.89
24201;BMP280;2801;50.972;7.856;2023-07-31T13:58:02;96833.16;;;18.83
24201;BMP280;2801;50.972;7.856;2023-07-31T14:00:29;96832.38;;;18.83
24201;BMP280;2801;50.972;7.856;2023-07-31T14:02:56;96829.66;;;18.76
24201;BMP280;2801;50.972;7.856;2023-07-31T14:05:23;96812.97;;;18.74
24201;BMP280;2801;50.972;7.856;2023-07-31T14:07:50;96812.59;;;18.79
24201;BMP280;2801;50.972;7.856;2023-07-31T14:10:17;96808.72;;;18.80
24201;BMP280;2801;50.972;7.856;2023-07-31T14:12:44;96806.38;;;18.85
24201;BMP280;2801;50.972;7.856;2023-07-31T14:15:11;96807.13;;;18.89
24201;BMP280;2801;50.972;7.856;2023-07-31T14:17:39;96796.28;;;18.89
24201;BMP280;2801;50.972;7.856;2023-07-31T14:20:07;96800.50;;;19.04
24201;BMP280;2801;50.972;7.856;2023-07-31T14:22:35;96790.41;;;19.12
24201;BMP280;2801;50.972;7.856;2023-07-31T14:25:02;96793.44;;;19.21
24201;BMP280;2801;50.972;7.856;2023-07-31T14:27:29;96787.63;;;19.26
24201;BMP280;2801;50.972;7.856;2023-07-31T14:29:56;96783.72;;;19.30
24201;BMP280;2801;50.972;7.856;2023-07-31T14:32:23;96791.06;;;19.37
24201;BMP280;2801;50.972;7.856;2023-07-31T14:34:52;96784.41;;;19.52
24201;BMP280;2801;50.972;7.856;2023-07-31T14:37:19;96792.47;;;19.66
24201;BMP280;2801;50.972;7.856;2023-07-31T14:39:46;96792.81;;;19.78